EAE weather

Siwo Airport
Emae Island, Shefa, Vanuatu

Public forecast

Using degrees Celsius for public forecast. Weather courtesy of forecast.io.

METAR (pilot weather report)

Closest report is Bauerfield International Airport, 36.6 nm (67.8 km) S. Retrieved 2019/06/20 12:00 UTC (39 minutes ago):

NVVV 201200Z 00000KT 9999 SCT020 21/20 Q1014 RMK FG

TAF (pilot weather forecast)

Closest forecast is Bauerfield International Airport, 36.6 nm (67.8 km) S. Retrieved 2019/06/20 12:03 UTC (36 minutes ago):

TAF TAF NVVV 201000Z 2012/2112 11010KT 9999 SCT020 PROB30 INTER 2012/2018 9000 -SHRA BKN018